sensor_id;sensor_type;location;lat;lon;timestamp;P1;durP1;ratioP1;P2;durP2;ratioP2
2712;SDS011;1366;47.988;7.856;2023-04-09T04:01:08;9.47;;;8.47;;
2712;SDS011;1366;47.988;7.856;2023-04-09T04:03:34;9.47;;;8.37;;
2712;SDS011;1366;47.988;7.856;2023-04-09T04:06:01;9.13;;;8.23;;
2712;SDS011;1366;47.988;7.856;2023-04-09T04:08:27;10.67;;;9.27;;
2712;SDS011;1366;47.988;7.856;2023-04-09T04:10:53;11.27;;;9.00;;
2712;SDS011;1366;47.988;7.856;2023-04-09T04:13:19;8.90;;;8.10;;
2712;SDS011;1366;47.988;7.856;2023-04-09T04:15:45;9.37;;;8.47;;
2712;SDS011;1366;47.988;7.856;2023-04-09T04:18:11;9.60;;;8.60;;
2712;SDS011;1366;47.988;7.856;2023-04-09T04:20:37;9.80;;;8.90;;
2712;SDS011;1366;47.988;7.856;2023-04-09T04:23:04;10.80;;;9.70;;
2712;SDS011;1366;47.988;7.856;2023-04-09T04:25:30;9.90;;;8.90;;
2712;SDS011;1366;47.988;7.856;2023-04-09T04:27:56;9.90;;;8.90;;
2712;SDS011;1366;47.988;7.856;2023-04-09T04:30:22;9.30;;;8.50;;
2712;SDS011;1366;47.988;7.856;2023-04-09T04:32:48;10.37;;;9.03;;
2712;SDS011;1366;47.988;7.856;2023-04-09T04:35:15;9.93;;;8.90;;
2712;SDS011;1366;47.988;7.856;2023-04-09T04:37:41;8.90;;;8.10;;
2712;SDS011;1366;47.988;7.856;2023-04-09T04:40:07;10.00;;;9.10;;
2712;SDS011;1366;47.988;7.856;2023-04-09T04:42:33;9.97;;;8.97;;
2712;SDS011;1366;47.988;7.856;2023-04-09T04:44:59;9.80;;;8.90;;
2712;SDS011;1366;47.988;7.856;2023-04-09T04:47:26;9.80;;;8.90;;
2712;SDS011;1366;47.988;7.856;2023-04-09T04:49:52;10.73;;;9.53;;
2712;SDS011;1366;47.988;7.856;2023-04-09T04:52:18;9.17;;;8.27;;
2712;SDS011;1366;47.988;7.856;2023-04-09T04:54:44;10.57;;;9.47;;
2712;SDS011;1366;47.988;7.856;2023-04-09T04:57:10;9.03;;;8.23;;
2712;SDS011;1366;47.988;7.856;2023-04-09T04:59:36;9.43;;;8.40;;
2712;SDS011;1366;47.988;7.856;2023-04-09T05:02:04;9.30;;;8.40;;
2712;SDS011;1366;47.988;7.856;2023-04-09T05:04:30;9.47;;;8.57;;
2712;SDS011;1366;47.988;7.856;2023-04-09T05:06:56;10.53;;;9.50;;
2712;SDS011;1366;47.988;7.856;2023-04-09T05:09:22;9.30;;;8.40;;
2712;SDS011;1366;47.988;7.856;2023-04-09T05:11:48;9.87;;;8.87;;
2712;SDS011;1366;47.988;7.856;2023-04-09T05:14:14;11.00;;;9.37;;
2712;SDS011;1366;47.988;7.856;2023-04-09T05:16:40;9.50;;;8.70;;
2712;SDS011;1366;47.988;7.856;2023-04-09T05:19:06;10.40;;;9.40;;
2712;SDS011;1366;47.988;7.856;2023-04-09T05:21:32;12.53;;;8.90;;
2712;SDS011;1366;47.988;7.856;2023-04-09T05:23:58;9.37;;;8.47;;
2712;SDS011;1366;47.988;7.856;2023-04-09T05:26:25;8.60;;;7.60;;
2712;SDS011;1366;47.988;7.856;2023-04-09T05:28:51;8.67;;;7.80;;
2712;SDS011;1366;47.988;7.856;2023-04-09T05:31:17;9.70;;;8.80;;
2712;SDS011;1366;47.988;7.856;2023-04-09T05:33:44;9.20;;;8.30;;
2712;SDS011;1366;47.988;7.856;2023-04-09T05:36:14;8.70;;;7.90;;
2712;SDS011;1366;47.988;7.856;2023-04-09T05:38:41;8.00;;;7.40;;
2712;SDS011;1366;47.988;7.856;2023-04-09T05:41:07;9.13;;;8.17;;
2712;SDS011;1366;47.988;7.856;2023-04-09T05:43:33;9.80;;;8.73;;
2712;SDS011;1366;47.988;7.856;2023-04-09T05:45:59;8.87;;;8.10;;
2712;SDS011;1366;47.988;7.856;2023-04-09T05:48:25;10.13;;;8.30;;
2712;SDS011;1366;47.988;7.856;2023-04-09T05:50:52;9.53;;;8.27;;
2712;SDS011;1366;47.988;7.856;2023-04-09T05:53:18;9.67;;;8.67;;
2712;SDS011;1366;47.988;7.856;2023-04-09T05:55:44;10.33;;;8.90;;
2712;SDS011;1366;47.988;7.856;2023-04-09T05:58:11;10.40;;;9.27;;
2712;SDS011;1366;47.988;7.856;2023-04-09T06:00:37;12.00;;;9.30;;
2712;SDS011;1366;47.988;7.856;2023-04-09T06:03:03;9.83;;;8.83;;
2712;SDS011;1366;47.988;7.856;2023-04-09T06:05:30;11.43;;;9.10;;
2712;SDS011;1366;47.988;7.856;2023-04-09T06:07:56;11.10;;;9.13;;
2712;SDS011;1366;47.988;7.856;2023-04-09T06:10:22;10.83;;;8.80;;
2712;SDS011;1366;47.988;7.856;2023-04-09T06:12:48;12.33;;;9.63;;
2712;SDS011;1366;47.988;7.856;2023-04-09T06:15:15;11.27;;;9.20;;
2712;SDS011;1366;47.988;7.856;2023-04-09T06:17:41;10.53;;;8.80;;
2712;SDS011;1366;47.988;7.856;2023-04-09T06:20:07;10.77;;;9.67;;
2712;SDS011;1366;47.988;7.856;2023-04-09T06:22:33;11.00;;;9.80;;
2712;SDS011;1366;47.988;7.856;2023-04-09T06:24:59;11.73;;;9.63;;
2712;SDS011;1366;47.988;7.856;2023-04-09T06:27:25;10.17;;;9.07;;
2712;SDS011;1366;47.988;7.856;2023-04-09T06:29:51;10.93;;;9.27;;
2712;SDS011;1366;47.988;7.856;2023-04-09T06:32:17;11.27;;;9.40;;
2712;SDS011;1366;47.988;7.856;2023-04-09T06:34:43;10.33;;;8.97;;
2712;SDS011;1366;47.988;7.856;2023-04-09T06:37:10;9.70;;;8.70;;
2712;SDS011;1366;47.988;7.856;2023-04-09T06:39:36;10.63;;;9.10;;
2712;SDS011;1366;47.988;7.856;2023-04-09T06:42:02;10.60;;;9.50;;
2712;SDS011;1366;47.988;7.856;2023-04-09T06:44:28;9.90;;;8.90;;
2712;SDS011;1366;47.988;7.856;2023-04-09T06:46:55;11.03;;;9.47;;
2712;SDS011;1366;47.988;7.856;2023-04-09T06:49:21;13.10;;;11.43;;
2712;SDS011;1366;47.988;7.856;2023-04-09T06:51:47;12.63;;;11.40;;
2712;SDS011;1366;47.988;7.856;2023-04-09T06:54:13;12.90;;;10.47;;
2712;SDS011;1366;47.988;7.856;2023-04-09T06:56:39;11.73;;;9.83;;
2712;SDS011;1366;47.988;7.856;2023-04-09T06:59:05;9.10;;;8.20;;
2712;SDS011;1366;47.988;7.856;2023-04-09T07:01:31;12.30;;;10.63;;
2712;SDS011;1366;47.988;7.856;2023-04-09T07:03:59;12.30;;;11.00;;
2712;SDS011;1366;47.988;7.856;2023-04-09T07:06:25;10.63;;;9.60;;
2712;SDS011;1366;47.988;7.856;2023-04-09T07:08:51;11.43;;;9.47;;
2712;SDS011;1366;47.988;7.856;2023-04-09T07:11:17;11.20;;;9.20;;
2712;SDS011;1366;47.988;7.856;2023-04-09T07:13:43;10.13;;;9.10;;
2712;SDS011;1366;47.988;7.856;2023-04-09T07:16:09;9.93;;;8.87;;
2712;SDS011;1366;47.988;7.856;2023-04-09T07:18:35;9.43;;;8.47;;
2712;SDS011;1366;47.988;7.856;2023-04-09T07:21:01;8.80;;;7.90;;
2712;SDS011;1366;47.988;7.856;2023-04-09T07:23:27;9.57;;;8.67;;
2712;SDS011;1366;47.988;7.856;2023-04-09T07:25:53;9.73;;;8.50;;
2712;SDS011;1366;47.988;7.856;2023-04-09T07:28:19;9.83;;;8.83;;
2712;SDS011;1366;47.988;7.856;2023-04-09T07:30:45;8.50;;;7.60;;
2712;SDS011;1366;47.988;7.856;2023-04-09T07:33:11;10.60;;;8.83;;
2712;SDS011;1366;47.988;7.856;2023-04-09T07:35:38;9.40;;;8.40;;
2712;SDS011;1366;47.988;7.856;2023-04-09T07:38:04;9.03;;;8.13;;
2712;SDS011;1366;47.988;7.856;2023-04-09T07:40:30;10.70;;;8.80;;
2712;SDS011;1366;47.988;7.856;2023-04-09T07:42:56;8.80;;;7.87;;
2712;SDS011;1366;47.988;7.856;2023-04-09T07:45:22;9.27;;;8.33;;
2712;SDS011;1366;47.988;7.856;2023-04-09T07:47:48;8.40;;;7.60;;
2712;SDS011;1366;47.988;7.856;2023-04-09T07:50:14;7.73;;;6.97;;
2712;SDS011;1366;47.988;7.856;2023-04-09T07:52:40;8.10;;;7.10;;
2712;SDS011;1366;47.988;7.856;2023-04-09T07:55:06;10.13;;;7.40;;
2712;SDS011;1366;47.988;7.856;2023-04-09T07:57:32;8.47;;;7.67;;
2712;SDS011;1366;47.988;7.856;2023-04-09T07:59:58;8.60;;;7.43;;
2712;SDS011;1366;47.988;7.856;2023-04-09T08:02:25;7.40;;;6.77;;
2712;SDS011;1366;47.988;7.856;2023-04-09T08:04:51;9.83;;;8.30;;
2712;SDS011;1366;47.988;7.856;2023-04-09T08:07:17;9.67;;;8.60;;
2712;SDS011;1366;47.988;7.856;2023-04-09T08:09:43;8.47;;;7.67;;
2712;SDS011;1366;47.988;7.856;2023-04-09T08:12:10;7.40;;;6.70;;
2712;SDS011;1366;47.988;7.856;2023-04-09T08:14:36;6.47;;;5.97;;
2712;SDS011;1366;47.988;7.856;2023-04-09T08:17:03;7.30;;;6.63;;
2712;SDS011;1366;47.988;7.856;2023-04-09T08:19:29;6.73;;;6.13;;
2712;SDS011;1366;47.988;7.856;2023-04-09T08:21:55;6.33;;;5.60;;
2712;SDS011;1366;47.988;7.856;2023-04-09T08:24:22;6.37;;;5.77;;
2712;SDS011;1366;47.988;7.856;2023-04-09T08:26:48;6.27;;;5.67;;
2712;SDS011;1366;47.988;7.856;2023-04-09T08:29:15;6.83;;;6.13;;
2712;SDS011;1366;47.988;7.856;2023-04-09T08:31:41;6.77;;;6.07;;
2712;SDS011;1366;47.988;7.856;2023-04-09T08:34:07;5.60;;;5.13;;
2712;SDS011;1366;47.988;7.856;2023-04-09T08:36:33;5.60;;;5.10;;
2712;SDS011;1366;47.988;7.856;2023-04-09T08:39:00;5.10;;;4.70;;
2712;SDS011;1366;47.988;7.856;2023-04-09T08:41:26;5.23;;;4.63;;
2712;SDS011;1366;47.988;7.856;2023-04-09T08:43:53;5.93;;;5.43;;
2712;SDS011;1366;47.988;7.856;2023-04-09T08:46:20;5.93;;;5.07;;
2712;SDS011;1366;47.988;7.856;2023-04-09T08:48:47;5.50;;;5.00;;
2712;SDS011;1366;47.988;7.856;2023-04-09T08:51:14;6.03;;;5.53;;
2712;SDS011;1366;47.988;7.856;2023-04-09T08:53:43;5.57;;;5.17;;
2712;SDS011;1366;47.988;7.856;2023-04-09T08:56:11;5.00;;;4.60;;
2712;SDS011;1366;47.988;7.856;2023-04-09T08:58:39;4.33;;;4.03;;
2712;SDS011;1366;47.988;7.856;2023-04-09T09:01:16;5.20;;;4.80;;
2712;SDS011;1366;47.988;7.856;2023-04-09T09:06:21;4.97;;;4.57;;
2712;SDS011;1366;47.988;7.856;2023-04-09T09:11:36;4.33;;;4.03;;
2712;SDS011;1366;47.988;7.856;2023-04-09T09:14:03;4.13;;;3.83;;
2712;SDS011;1366;47.988;7.856;2023-04-09T09:16:29;4.30;;;4.00;;
2712;SDS011;1366;47.988;7.856;2023-04-09T09:18:58;3.90;;;3.70;;
2712;SDS011;1366;47.988;7.856;2023-04-09T09:21:26;3.73;;;3.53;;
2712;SDS011;1366;47.988;7.856;2023-04-09T09:23:54;4.20;;;3.90;;
2712;SDS011;1366;47.988;7.856;2023-04-09T09:26:21;4.43;;;4.03;;
2712;SDS011;1366;47.988;7.856;2023-04-09T09:28:50;4.40;;;3.83;;
2712;SDS011;1366;47.988;7.856;2023-04-09T09:31:17;4.57;;;4.13;;
2712;SDS011;1366;47.988;7.856;2023-04-09T09:33:43;3.70;;;3.50;;
2712;SDS011;1366;47.988;7.856;2023-04-09T09:36:09;4.10;;;3.80;;
2712;SDS011;1366;47.988;7.856;2023-04-09T09:38:51;4.63;;;4.23;;
2712;SDS011;1366;47.988;7.856;2023-04-09T09:41:18;4.30;;;4.00;;
2712;SDS011;1366;47.988;7.856;2023-04-09T09:43:44;4.40;;;4.10;;
2712;SDS011;1366;47.988;7.856;2023-04-09T09:46:11;4.30;;;4.00;;
2712;SDS011;1366;47.988;7.856;2023-04-09T09:48:38;4.07;;;3.77;;
2712;SDS011;1366;47.988;7.856;2023-04-09T09:51:07;4.57;;;4.17;;
2712;SDS011;1366;47.988;7.856;2023-04-09T09:53:34;3.87;;;3.57;;
2712;SDS011;1366;47.988;7.856;2023-04-09T09:56:01;4.00;;;3.70;;
2712;SDS011;1366;47.988;7.856;2023-04-09T09:59:05;4.13;;;3.73;;
2712;SDS011;1366;47.988;7.856;2023-04-09T10:01:21;5.00;;;4.70;;
2712;SDS011;1366;47.988;7.856;2023-04-09T10:03:49;3.30;;;3.10;;
2712;SDS011;1366;47.988;7.856;2023-04-09T10:06:16;3.73;;;3.50;;
2712;SDS011;1366;47.988;7.856;2023-04-09T10:08:43;4.10;;;3.80;;
2712;SDS011;1366;47.988;7.856;2023-04-09T10:11:11;3.50;;;3.30;;
2712;SDS011;1366;47.988;7.856;2023-04-09T10:13:45;3.73;;;3.43;;
2712;SDS011;1366;47.988;7.856;2023-04-09T10:16:13;3.37;;;3.17;;
2712;SDS011;1366;47.988;7.856;2023-04-09T10:18:40;3.33;;;3.13;;
2712;SDS011;1366;47.988;7.856;2023-04-09T10:23:38;3.93;;;3.63;;
2712;SDS011;1366;47.988;7.856;2023-04-09T10:26:04;3.40;;;3.20;;
2712;SDS011;1366;47.988;7.856;2023-04-09T10:28:30;3.20;;;3.00;;
2712;SDS011;1366;47.988;7.856;2023-04-09T10:30:57;4.03;;;3.73;;
2712;SDS011;1366;47.988;7.856;2023-04-09T10:33:24;3.67;;;3.40;;
2712;SDS011;1366;47.988;7.856;2023-04-09T10:35:52;3.93;;;3.63;;
2712;SDS011;1366;47.988;7.856;2023-04-09T10:43:42;6.50;;;5.90;;
2712;SDS011;1366;47.988;7.856;2023-04-09T10:46:27;5.90;;;4.40;;
2712;SDS011;1366;47.988;7.856;2023-04-09T10:51:37;4.00;;;3.70;;
2712;SDS011;1366;47.988;7.856;2023-04-09T10:54:34;4.50;;;4.20;;
2712;SDS011;1366;47.988;7.856;2023-04-09T10:57:08;4.23;;;3.93;;
2712;SDS011;1366;47.988;7.856;2023-04-09T10:59:35;4.70;;;4.30;;
2712;SDS011;1366;47.988;7.856;2023-04-09T11:02:01;4.33;;;4.03;;
2712;SDS011;1366;47.988;7.856;2023-04-09T11:04:35;4.20;;;3.90;;
2712;SDS011;1366;47.988;7.856;2023-04-09T11:07:03;4.00;;;3.70;;
2712;SDS011;1366;47.988;7.856;2023-04-09T11:09:34;4.50;;;4.20;;
2712;SDS011;1366;47.988;7.856;2023-04-09T11:12:00;4.47;;;4.17;;
2712;SDS011;1366;47.988;7.856;2023-04-09T11:14:27;4.17;;;3.87;;
2712;SDS011;1366;47.988;7.856;2023-04-09T11:16:53;5.03;;;4.67;;
2712;SDS011;1366;47.988;7.856;2023-04-09T11:19:19;5.00;;;4.60;;
2712;SDS011;1366;47.988;7.856;2023-04-09T11:21:46;4.97;;;4.57;;
2712;SDS011;1366;47.988;7.856;2023-04-09T11:24:13;4.10;;;3.80;;
2712;SDS011;1366;47.988;7.856;2023-04-09T11:26:39;5.00;;;4.60;;
2712;SDS011;1366;47.988;7.856;2023-04-09T11:29:05;5.57;;;5.07;;
2712;SDS011;1366;47.988;7.856;2023-04-09T11:31:34;5.00;;;4.60;;
2712;SDS011;1366;47.988;7.856;2023-04-09T11:34:01;4.07;;;3.77;;
2712;SDS011;1366;47.988;7.856;2023-04-09T11:36:27;4.37;;;3.97;;
2712;SDS011;1366;47.988;7.856;2023-04-09T11:38:54;3.67;;;3.47;;
2712;SDS011;1366;47.988;7.856;2023-04-09T11:41:36;5.07;;;4.67;;
2712;SDS011;1366;47.988;7.856;2023-04-09T11:44:03;3.97;;;3.67;;
2712;SDS011;1366;47.988;7.856;2023-04-09T11:46:30;3.80;;;3.53;;
2712;SDS011;1366;47.988;7.856;2023-04-09T11:48:57;6.10;;;4.10;;
2712;SDS011;1366;47.988;7.856;2023-04-09T11:51:23;4.57;;;4.17;;
2712;SDS011;1366;47.988;7.856;2023-04-09T11:53:51;4.60;;;4.30;;
2712;SDS011;1366;47.988;7.856;2023-04-09T11:56:17;4.40;;;4.10;;
2712;SDS011;1366;47.988;7.856;2023-04-09T11:58:47;4.80;;;4.40;;
2712;SDS011;1366;47.988;7.856;2023-04-09T12:01:13;4.47;;;4.17;;
2712;SDS011;1366;47.988;7.856;2023-04-09T12:03:39;3.93;;;3.73;;
2712;SDS011;1366;47.988;7.856;2023-04-09T12:06:06;4.47;;;4.17;;
2712;SDS011;1366;47.988;7.856;2023-04-09T12:08:33;4.47;;;4.07;;
2712;SDS011;1366;47.988;7.856;2023-04-09T12:11:10;3.90;;;3.60;;
2712;SDS011;1366;47.988;7.856;2023-04-09T12:13:36;3.90;;;3.60;;
2712;SDS011;1366;47.988;7.856;2023-04-09T12:16:07;3.93;;;3.67;;
2712;SDS011;1366;47.988;7.856;2023-04-09T12:18:36;3.90;;;3.70;;
2712;SDS011;1366;47.988;7.856;2023-04-09T12:21:02;4.40;;;4.00;;
2712;SDS011;1366;47.988;7.856;2023-04-09T12:23:29;3.60;;;3.40;;
2712;SDS011;1366;47.988;7.856;2023-04-09T12:25:55;4.70;;;4.40;;
2712;SDS011;1366;47.988;7.856;2023-04-09T12:28:24;4.13;;;3.83;;
2712;SDS011;1366;47.988;7.856;2023-04-09T12:30:50;3.80;;;3.60;;
2712;SDS011;1366;47.988;7.856;2023-04-09T12:33:17;3.97;;;3.57;;
2712;SDS011;1366;47.988;7.856;2023-04-09T12:35:43;4.50;;;4.20;;
2712;SDS011;1366;47.988;7.856;2023-04-09T12:38:09;3.80;;;3.50;;
2712;SDS011;1366;47.988;7.856;2023-04-09T12:40:35;3.43;;;3.20;;
2712;SDS011;1366;47.988;7.856;2023-04-09T12:43:01;4.00;;;3.70;;
2712;SDS011;1366;47.988;7.856;2023-04-09T12:45:27;4.20;;;3.90;;
2712;SDS011;1366;47.988;7.856;2023-04-09T12:47:54;4.00;;;3.70;;
2712;SDS011;1366;47.988;7.856;2023-04-09T12:50:20;3.33;;;3.13;;
2712;SDS011;1366;47.988;7.856;2023-04-09T12:52:46;3.90;;;3.60;;
2712;SDS011;1366;47.988;7.856;2023-04-09T12:55:12;3.43;;;3.23;;
2712;SDS011;1366;47.988;7.856;2023-04-09T12:57:40;4.33;;;4.03;;
2712;SDS011;1366;47.988;7.856;2023-04-09T13:00:07;3.60;;;3.30;;
2712;SDS011;1366;47.988;7.856;2023-04-09T13:02:33;3.57;;;3.37;;
2712;SDS011;1366;47.988;7.856;2023-04-09T13:05:00;3.83;;;3.63;;
2712;SDS011;1366;47.988;7.856;2023-04-09T13:07:26;3.80;;;3.50;;
2712;SDS011;1366;47.988;7.856;2023-04-09T13:09:53;3.87;;;3.57;;
2712;SDS011;1366;47.988;7.856;2023-04-09T13:12:20;3.80;;;3.50;;
2712;SDS011;1366;47.988;7.856;2023-04-09T13:14:46;3.50;;;3.30;;
2712;SDS011;1366;47.988;7.856;2023-04-09T13:17:13;3.50;;;3.30;;
2712;SDS011;1366;47.988;7.856;2023-04-09T13:19:39;4.07;;;3.77;;
2712;SDS011;1366;47.988;7.856;2023-04-09T13:22:05;3.47;;;3.27;;
2712;SDS011;1366;47.988;7.856;2023-04-09T13:24:35;3.07;;;2.87;;
2712;SDS011;1366;47.988;7.856;2023-04-09T13:27:04;3.60;;;3.30;;
2712;SDS011;1366;47.988;7.856;2023-04-09T13:29:33;3.40;;;3.20;;
2712;SDS011;1366;47.988;7.856;2023-04-09T13:31:59;3.80;;;3.50;;
2712;SDS011;1366;47.988;7.856;2023-04-09T13:34:30;3.50;;;3.30;;
2712;SDS011;1366;47.988;7.856;2023-04-09T13:36:57;3.70;;;3.50;;
2712;SDS011;1366;47.988;7.856;2023-04-09T13:39:23;3.60;;;3.40;;
2712;SDS011;1366;47.988;7.856;2023-04-09T13:41:49;3.80;;;3.57;;
2712;SDS011;1366;47.988;7.856;2023-04-09T13:44:15;3.63;;;3.33;;
2712;SDS011;1366;47.988;7.856;2023-04-09T13:46:41;3.20;;;3.00;;
2712;SDS011;1366;47.988;7.856;2023-04-09T13:49:07;3.67;;;3.37;;
2712;SDS011;1366;47.988;7.856;2023-04-09T13:51:33;3.67;;;3.43;;
2712;SDS011;1366;47.988;7.856;2023-04-09T13:53:59;3.77;;;3.57;;
2712;SDS011;1366;47.988;7.856;2023-04-09T13:56:25;4.60;;;4.30;;
2712;SDS011;1366;47.988;7.856;2023-04-09T13:58:52;4.40;;;4.10;;
2712;SDS011;1366;47.988;7.856;2023-04-09T14:01:18;4.47;;;4.17;;
2712;SDS011;1366;47.988;7.856;2023-04-09T14:03:44;4.37;;;3.97;;
2712;SDS011;1366;47.988;7.856;2023-04-09T14:06:10;4.30;;;4.00;;
2712;SDS011;1366;47.988;7.856;2023-04-09T14:08:37;4.47;;;4.07;;
2712;SDS011;1366;47.988;7.856;2023-04-09T14:11:03;4.00;;;3.73;;
2712;SDS011;1366;47.988;7.856;2023-04-09T14:13:29;3.80;;;3.50;;
2712;SDS011;1366;47.988;7.856;2023-04-09T14:15:55;5.17;;;4.87;;
2712;SDS011;1366;47.988;7.856;2023-04-09T14:18:22;5.10;;;4.70;;
2712;SDS011;1366;47.988;7.856;2023-04-09T14:20:48;4.00;;;3.80;;
2712;SDS011;1366;47.988;7.856;2023-04-09T14:23:14;5.37;;;4.97;;
2712;SDS011;1366;47.988;7.856;2023-04-09T14:25:40;6.40;;;5.80;;
2712;SDS011;1366;47.988;7.856;2023-04-09T14:28:06;5.33;;;4.97;;
2712;SDS011;1366;47.988;7.856;2023-04-09T14:30:32;4.70;;;4.40;;
2712;SDS011;1366;47.988;7.856;2023-04-09T14:32:58;4.20;;;3.90;;
2712;SDS011;1366;47.988;7.856;2023-04-09T14:35:25;4.70;;;4.40;;
2712;SDS011;1366;47.988;7.856;2023-04-09T14:37:51;4.10;;;3.80;;
2712;SDS011;1366;47.988;7.856;2023-04-09T14:40:17;6.10;;;5.60;;
2712;SDS011;1366;47.988;7.856;2023-04-09T14:42:44;5.03;;;4.73;;
2712;SDS011;1366;47.988;7.856;2023-04-09T14:45:10;7.37;;;6.77;;
2712;SDS011;1366;47.988;7.856;2023-04-09T14:47:36;5.80;;;5.40;;
2712;SDS011;1366;47.988;7.856;2023-04-09T14:50:02;6.53;;;6.07;;
2712;SDS011;1366;47.988;7.856;2023-04-09T14:52:28;6.10;;;5.70;;
2712;SDS011;1366;47.988;7.856;2023-04-09T14:54:55;4.70;;;4.40;;
2712;SDS011;1366;47.988;7.856;2023-04-09T14:57:21;5.20;;;4.90;;
2712;SDS011;1366;47.988;7.856;2023-04-09T14:59:47;4.80;;;4.50;;
2712;SDS011;1366;47.988;7.856;2023-04-09T15:02:13;5.10;;;4.80;;
2712;SDS011;1366;47.988;7.856;2023-04-09T15:04:40;5.23;;;4.90;;
2712;SDS011;1366;47.988;7.856;2023-04-09T15:07:06;5.77;;;5.37;;
2712;SDS011;1366;47.988;7.856;2023-04-09T15:09:32;4.93;;;4.63;;
2712;SDS011;1366;47.988;7.856;2023-04-09T15:11:58;4.63;;;4.33;;
2712;SDS011;1366;47.988;7.856;2023-04-09T15:14:27;4.10;;;3.90;;
2712;SDS011;1366;47.988;7.856;2023-04-09T15:16:54;4.17;;;3.90;;
2712;SDS011;1366;47.988;7.856;2023-04-09T15:19:20;4.67;;;4.37;;
2712;SDS011;1366;47.988;7.856;2023-04-09T15:21:46;4.27;;;4.00;;
2712;SDS011;1366;47.988;7.856;2023-04-09T15:24:12;3.90;;;3.70;;
2712;SDS011;1366;47.988;7.856;2023-04-09T15:26:38;4.00;;;3.80;;
2712;SDS011;1366;47.988;7.856;2023-04-09T15:29:05;4.50;;;4.10;;
2712;SDS011;1366;47.988;7.856;2023-04-09T15:31:32;4.20;;;4.00;;
2712;SDS011;1366;47.988;7.856;2023-04-09T15:33:58;4.43;;;4.10;;
2712;SDS011;1366;47.988;7.856;2023-04-09T15:36:24;3.80;;;3.60;;
2712;SDS011;1366;47.988;7.856;2023-04-09T15:38:53;3.67;;;3.47;;
2712;SDS011;1366;47.988;7.856;2023-04-09T15:41:19;4.07;;;3.87;;
2712;SDS011;1366;47.988;7.856;2023-04-09T15:43:47;4.30;;;4.00;;
2712;SDS011;1366;47.988;7.856;2023-04-09T15:46:13;4.07;;;3.87;;
2712;SDS011;1366;47.988;7.856;2023-04-09T15:48:40;3.90;;;3.70;;
2712;SDS011;1366;47.988;7.856;2023-04-09T15:51:06;4.30;;;4.10;;
2712;SDS011;1366;47.988;7.856;2023-04-09T15:53:33;3.80;;;3.60;;
2712;SDS011;1366;47.988;7.856;2023-04-09T15:55:59;4.20;;;4.00;;
2712;SDS011;1366;47.988;7.856;2023-04-09T15:58:26;4.40;;;4.10;;
2712;SDS011;1366;47.988;7.856;2023-04-09T16:00:52;4.97;;;4.40;;
2712;SDS011;1366;47.988;7.856;2023-04-09T16:03:18;4.57;;;4.27;;
2712;SDS011;1366;47.988;7.856;2023-04-09T16:05:45;4.07;;;3.87;;
2712;SDS011;1366;47.988;7.856;2023-04-09T16:08:12;3.90;;;3.70;;
2712;SDS011;1366;47.988;7.856;2023-04-09T16:10:38;3.77;;;3.57;;
2712;SDS011;1366;47.988;7.856;2023-04-09T16:13:04;4.60;;;4.20;;
2712;SDS011;1366;47.988;7.856;2023-04-09T16:15:30;4.00;;;3.70;;
2712;SDS011;1366;47.988;7.856;2023-04-09T16:17:56;4.70;;;4.40;;
2712;SDS011;1366;47.988;7.856;2023-04-09T16:20:23;3.87;;;3.67;;
2712;SDS011;1366;47.988;7.856;2023-04-09T16:22:49;4.13;;;3.93;;
2712;SDS011;1366;47.988;7.856;2023-04-09T16:25:15;4.30;;;4.00;;
2712;SDS011;1366;47.988;7.856;2023-04-09T16:27:41;3.93;;;3.73;;
2712;SDS011;1366;47.988;7.856;2023-04-09T16:30:07;4.00;;;3.80;;
2712;SDS011;1366;47.988;7.856;2023-04-09T16:32:33;7.07;;;6.57;;
2712;SDS011;1366;47.988;7.856;2023-04-09T16:34:59;7.20;;;6.80;;
2712;SDS011;1366;47.988;7.856;2023-04-09T16:37:26;5.00;;;4.70;;
2712;SDS011;1366;47.988;7.856;2023-04-09T16:39:53;4.10;;;3.87;;
2712;SDS011;1366;47.988;7.856;2023-04-09T16:42:21;4.13;;;3.83;;
2712;SDS011;1366;47.988;7.856;2023-04-09T16:44:48;4.40;;;4.20;;
2712;SDS011;1366;47.988;7.856;2023-04-09T16:47:14;4.30;;;4.10;;
2712;SDS011;1366;47.988;7.856;2023-04-09T16:49:40;4.37;;;4.07;;
2712;SDS011;1366;47.988;7.856;2023-04-09T16:52:06;4.30;;;4.00;;
2712;SDS011;1366;47.988;7.856;2023-04-09T16:54:32;4.33;;;4.13;;
2712;SDS011;1366;47.988;7.856;2023-04-09T16:56:58;4.50;;;4.20;;
2712;SDS011;1366;47.988;7.856;2023-04-09T16:59:25;3.80;;;3.60;;
2712;SDS011;1366;47.988;7.856;2023-04-09T17:01:51;4.50;;;4.20;;
2712;SDS011;1366;47.988;7.856;2023-04-09T17:04:17;4.43;;;4.13;;
2712;SDS011;1366;47.988;7.856;2023-04-09T17:06:44;4.93;;;4.53;;
2712;SDS011;1366;47.988;7.856;2023-04-09T17:09:11;5.07;;;4.77;;
2712;SDS011;1366;47.988;7.856;2023-04-09T17:11:37;5.10;;;4.80;;
2712;SDS011;1366;47.988;7.856;2023-04-09T17:14:03;4.20;;;3.90;;
2712;SDS011;1366;47.988;7.856;2023-04-09T17:16:29;4.40;;;4.07;;
2712;SDS011;1366;47.988;7.856;2023-04-09T17:18:56;4.50;;;4.20;;
2712;SDS011;1366;47.988;7.856;2023-04-09T17:21:22;4.37;;;4.07;;
2712;SDS011;1366;47.988;7.856;2023-04-09T17:23:48;4.47;;;4.17;;
2712;SDS011;1366;47.988;7.856;2023-04-09T17:26:14;4.83;;;4.43;;
2712;SDS011;1366;47.988;7.856;2023-04-09T17:28:40;4.80;;;4.50;;
2712;SDS011;1366;47.988;7.856;2023-04-09T17:31:13;4.20;;;3.80;;
2712;SDS011;1366;47.988;7.856;2023-04-09T17:33:40;5.50;;;4.27;;
2712;SDS011;1366;47.988;7.856;2023-04-09T17:36:07;4.40;;;4.00;;
2712;SDS011;1366;47.988;7.856;2023-04-09T17:38:33;4.40;;;4.10;;
2712;SDS011;1366;47.988;7.856;2023-04-09T17:40:59;4.50;;;4.10;;
2712;SDS011;1366;47.988;7.856;2023-04-09T17:43:25;4.07;;;3.87;;
2712;SDS011;1366;47.988;7.856;2023-04-09T17:45:51;3.93;;;3.63;;
2712;SDS011;1366;47.988;7.856;2023-04-09T17:48:17;4.50;;;4.20;;
2712;SDS011;1366;47.988;7.856;2023-04-09T17:50:43;6.10;;;4.87;;
2712;SDS011;1366;47.988;7.856;2023-04-09T17:53:09;7.07;;;5.90;;
2712;SDS011;1366;47.988;7.856;2023-04-09T17:55:35;5.70;;;5.20;;
2712;SDS011;1366;47.988;7.856;2023-04-09T17:58:01;4.63;;;4.23;;
2712;SDS011;1366;47.988;7.856;2023-04-09T18:00:27;4.50;;;4.20;;
2712;SDS011;1366;47.988;7.856;2023-04-09T18:02:54;4.60;;;4.30;;
2712;SDS011;1366;47.988;7.856;2023-04-09T18:05:21;4.27;;;3.97;;
2712;SDS011;1366;47.988;7.856;2023-04-09T18:07:47;4.43;;;4.13;;
2712;SDS011;1366;47.988;7.856;2023-04-09T18:10:13;4.30;;;4.00;;
2712;SDS011;1366;47.988;7.856;2023-04-09T18:12:39;4.50;;;4.20;;
2712;SDS011;1366;47.988;7.856;2023-04-09T18:15:06;4.60;;;4.30;;
2712;SDS011;1366;47.988;7.856;2023-04-09T18:17:32;4.43;;;4.13;;
2712;SDS011;1366;47.988;7.856;2023-04-09T18:19:58;4.53;;;4.17;;
2712;SDS011;1366;47.988;7.856;2023-04-09T18:22:24;5.33;;;4.80;;
2712;SDS011;1366;47.988;7.856;2023-04-09T18:24:51;4.73;;;4.33;;
2712;SDS011;1366;47.988;7.856;2023-04-09T18:27:17;5.10;;;4.70;;
2712;SDS011;1366;47.988;7.856;2023-04-09T18:29:44;4.90;;;4.50;;
2712;SDS011;1366;47.988;7.856;2023-04-09T18:32:10;4.57;;;4.27;;
2712;SDS011;1366;47.988;7.856;2023-04-09T18:34:36;4.60;;;4.23;;
2712;SDS011;1366;47.988;7.856;2023-04-09T18:37:02;4.33;;;4.03;;
2712;SDS011;1366;47.988;7.856;2023-04-09T18:39:28;5.50;;;4.80;;
2712;SDS011;1366;47.988;7.856;2023-04-09T18:41:55;5.17;;;4.70;;
2712;SDS011;1366;47.988;7.856;2023-04-09T18:44:21;5.23;;;4.83;;
2712;SDS011;1366;47.988;7.856;2023-04-09T18:46:47;5.03;;;4.63;;
2712;SDS011;1366;47.988;7.856;2023-04-09T18:49:13;4.80;;;4.50;;
2712;SDS011;1366;47.988;7.856;2023-04-09T18:51:39;4.80;;;4.47;;
2712;SDS011;1366;47.988;7.856;2023-04-09T18:54:05;5.47;;;4.97;;
2712;SDS011;1366;47.988;7.856;2023-04-09T18:56:31;6.40;;;5.90;;
2712;SDS011;1366;47.988;7.856;2023-04-09T18:58:57;5.00;;;4.60;;
2712;SDS011;1366;47.988;7.856;2023-04-09T19:01:23;5.03;;;4.73;;
2712;SDS011;1366;47.988;7.856;2023-04-09T19:03:49;5.37;;;4.97;;
2712;SDS011;1366;47.988;7.856;2023-04-09T19:06:16;4.67;;;4.37;;
2712;SDS011;1366;47.988;7.856;2023-04-09T19:08:43;5.23;;;4.73;;
2712;SDS011;1366;47.988;7.856;2023-04-09T19:11:09;5.00;;;4.60;;
2712;SDS011;1366;47.988;7.856;2023-04-09T19:13:36;4.80;;;4.40;;
2712;SDS011;1366;47.988;7.856;2023-04-09T19:16:03;4.87;;;4.47;;
2712;SDS011;1366;47.988;7.856;2023-04-09T19:18:29;4.30;;;4.00;;
2712;SDS011;1366;47.988;7.856;2023-04-09T19:20:56;4.60;;;4.30;;
2712;SDS011;1366;47.988;7.856;2023-04-09T19:23:22;4.90;;;4.60;;
2712;SDS011;1366;47.988;7.856;2023-04-09T19:25:54;4.93;;;4.53;;